sensor_id;sensor_type;location;lat;lon;timestamp;P1;durP1;ratioP1;P2;durP2;ratioP2
18659;SDS011;9459;50.254;19.014;2023-03-01T00:01:20;146.20;;;62.60;;
18659;SDS011;9459;50.254;19.014;2023-03-01T00:03:50;136.87;;;59.30;;
18659;SDS011;9459;50.254;19.014;2023-03-01T00:06:19;138.02;;;61.53;;
18659;SDS011;9459;50.254;19.014;2023-03-01T00:08:48;139.80;;;59.22;;
18659;SDS011;9459;50.254;19.014;2023-03-01T00:11:19;137.00;;;58.05;;
18659;SDS011;9459;50.254;19.014;2023-03-01T00:13:49;136.98;;;59.17;;
18659;SDS011;9459;50.254;19.014;2023-03-01T00:16:20;141.20;;;60.37;;
18659;SDS011;9459;50.254;19.014;2023-03-01T00:18:49;130.43;;;57.80;;
18659;SDS011;9459;50.254;19.014;2023-03-01T00:21:19;131.48;;;57.40;;
18659;SDS011;9459;50.254;19.014;2023-03-01T00:23:48;136.98;;;56.83;;
18659;SDS011;9459;50.254;19.014;2023-03-01T00:26:20;133.93;;;58.70;;
18659;SDS011;9459;50.254;19.014;2023-03-01T00:28:49;128.35;;;54.95;;
18659;SDS011;9459;50.254;19.014;2023-03-01T00:31:20;127.85;;;57.42;;
18659;SDS011;9459;50.254;19.014;2023-03-01T00:33:51;133.20;;;57.87;;
18659;SDS011;9459;50.254;19.014;2023-03-01T00:36:24;141.82;;;58.47;;
18659;SDS011;9459;50.254;19.014;2023-03-01T00:38:55;140.77;;;60.45;;
18659;SDS011;9459;50.254;19.014;2023-03-01T00:41:24;134.00;;;56.65;;
18659;SDS011;9459;50.254;19.014;2023-03-01T00:43:54;130.82;;;57.60;;
18659;SDS011;9459;50.254;19.014;2023-03-01T00:46:23;138.80;;;60.10;;
18659;SDS011;9459;50.254;19.014;2023-03-01T00:48:53;136.77;;;60.37;;
18659;SDS011;9459;50.254;19.014;2023-03-01T00:51:22;139.00;;;57.55;;
18659;SDS011;9459;50.254;19.014;2023-03-01T00:53:52;145.15;;;61.90;;
18659;SDS011;9459;50.254;19.014;2023-03-01T00:56:23;149.88;;;63.58;;
18659;SDS011;9459;50.254;19.014;2023-03-01T00:58:52;152.93;;;63.95;;
18659;SDS011;9459;50.254;19.014;2023-03-01T01:01:21;128.23;;;55.63;;
18659;SDS011;9459;50.254;19.014;2023-03-01T01:03:51;135.95;;;59.42;;
18659;SDS011;9459;50.254;19.014;2023-03-01T01:06:21;133.05;;;55.20;;
18659;SDS011;9459;50.254;19.014;2023-03-01T01:08:51;131.32;;;57.05;;
18659;SDS011;9459;50.254;19.014;2023-03-01T01:11:20;130.52;;;56.58;;
18659;SDS011;9459;50.254;19.014;2023-03-01T01:13:50;136.02;;;59.90;;
18659;SDS011;9459;50.254;19.014;2023-03-01T01:16:20;130.95;;;56.08;;
18659;SDS011;9459;50.254;19.014;2023-03-01T01:18:50;130.50;;;57.65;;
18659;SDS011;9459;50.254;19.014;2023-03-01T01:21:20;121.60;;;55.88;;
18659;SDS011;9459;50.254;19.014;2023-03-01T01:23:49;128.07;;;54.95;;
18659;SDS011;9459;50.254;19.014;2023-03-01T01:26:20;123.55;;;53.28;;
18659;SDS011;9459;50.254;19.014;2023-03-01T01:28:51;122.45;;;52.72;;
18659;SDS011;9459;50.254;19.014;2023-03-01T01:31:20;118.70;;;51.55;;
18659;SDS011;9459;50.254;19.014;2023-03-01T01:33:52;105.85;;;46.70;;
18659;SDS011;9459;50.254;19.014;2023-03-01T01:36:21;114.97;;;49.75;;
18659;SDS011;9459;50.254;19.014;2023-03-01T01:38:50;121.45;;;52.20;;
18659;SDS011;9459;50.254;19.014;2023-03-01T01:41:19;121.78;;;53.17;;
18659;SDS011;9459;50.254;19.014;2023-03-01T01:43:49;115.35;;;50.05;;
18659;SDS011;9459;50.254;19.014;2023-03-01T01:46:35;116.60;;;52.05;;
18659;SDS011;9459;50.254;19.014;2023-03-01T01:49:06;114.22;;;50.03;;
18659;SDS011;9459;50.254;19.014;2023-03-01T01:51:39;103.38;;;47.42;;
18659;SDS011;9459;50.254;19.014;2023-03-01T01:54:09;129.07;;;58.10;;
18659;SDS011;9459;50.254;19.014;2023-03-01T01:56:40;123.40;;;55.65;;
18659;SDS011;9459;50.254;19.014;2023-03-01T01:59:12;125.55;;;55.70;;
18659;SDS011;9459;50.254;19.014;2023-03-01T02:01:42;130.45;;;56.63;;
18659;SDS011;9459;50.254;19.014;2023-03-01T02:04:11;129.23;;;56.42;;
18659;SDS011;9459;50.254;19.014;2023-03-01T02:06:41;117.70;;;54.17;;
18659;SDS011;9459;50.254;19.014;2023-03-01T02:09:13;113.95;;;52.80;;
18659;SDS011;9459;50.254;19.014;2023-03-01T02:11:42;112.60;;;51.72;;
18659;SDS011;9459;50.254;19.014;2023-03-01T02:14:12;129.20;;;55.50;;
18659;SDS011;9459;50.254;19.014;2023-03-01T02:16:45;120.32;;;51.67;;
18659;SDS011;9459;50.254;19.014;2023-03-01T02:19:15;116.68;;;52.83;;
18659;SDS011;9459;50.254;19.014;2023-03-01T02:21:52;115.22;;;52.28;;
18659;SDS011;9459;50.254;19.014;2023-03-01T02:24:25;115.20;;;50.30;;
18659;SDS011;9459;50.254;19.014;2023-03-01T02:26:59;104.63;;;45.83;;
18659;SDS011;9459;50.254;19.014;2023-03-01T02:29:29;110.15;;;47.63;;
18659;SDS011;9459;50.254;19.014;2023-03-01T02:31:59;107.38;;;46.67;;
18659;SDS011;9459;50.254;19.014;2023-03-01T02:34:28;99.57;;;45.47;;
18659;SDS011;9459;50.254;19.014;2023-03-01T02:37:00;120.00;;;53.03;;
18659;SDS011;9459;50.254;19.014;2023-03-01T02:39:32;121.13;;;55.00;;
18659;SDS011;9459;50.254;19.014;2023-03-01T02:42:02;119.05;;;49.65;;
18659;SDS011;9459;50.254;19.014;2023-03-01T02:44:33;120.65;;;50.58;;
18659;SDS011;9459;50.254;19.014;2023-03-01T02:47:02;102.95;;;45.67;;
18659;SDS011;9459;50.254;19.014;2023-03-01T02:49:33;103.63;;;46.47;;
18659;SDS011;9459;50.254;19.014;2023-03-01T02:54:56;107.30;;;48.20;;
18659;SDS011;9459;50.254;19.014;2023-03-01T02:57:27;102.43;;;47.47;;
18659;SDS011;9459;50.254;19.014;2023-03-01T02:59:59;102.07;;;47.08;;
18659;SDS011;9459;50.254;19.014;2023-03-01T03:02:34;100.00;;;43.10;;
18659;SDS011;9459;50.254;19.014;2023-03-01T03:05:07;89.32;;;41.00;;
18659;SDS011;9459;50.254;19.014;2023-03-01T03:07:39;101.05;;;45.75;;
18659;SDS011;9459;50.254;19.014;2023-03-01T03:10:08;93.47;;;41.53;;
18659;SDS011;9459;50.254;19.014;2023-03-01T03:12:39;91.43;;;40.72;;
18659;SDS011;9459;50.254;19.014;2023-03-01T03:15:09;90.45;;;39.88;;
18659;SDS011;9459;50.254;19.014;2023-03-01T03:17:40;92.10;;;42.28;;
18659;SDS011;9459;50.254;19.014;2023-03-01T03:20:12;91.18;;;42.38;;
18659;SDS011;9459;50.254;19.014;2023-03-01T03:22:46;102.93;;;44.92;;
18659;SDS011;9459;50.254;19.014;2023-03-01T03:25:15;102.68;;;43.78;;
18659;SDS011;9459;50.254;19.014;2023-03-01T03:27:45;93.53;;;42.40;;
18659;SDS011;9459;50.254;19.014;2023-03-01T03:30:16;94.50;;;41.35;;
18659;SDS011;9459;50.254;19.014;2023-03-01T03:32:46;97.15;;;41.58;;
18659;SDS011;9459;50.254;19.014;2023-03-01T03:35:19;93.05;;;41.88;;
18659;SDS011;9459;50.254;19.014;2023-03-01T03:37:48;81.00;;;36.72;;
18659;SDS011;9459;50.254;19.014;2023-03-01T03:40:34;70.78;;;32.53;;
18659;SDS011;9459;50.254;19.014;2023-03-01T03:43:04;85.18;;;36.90;;
18659;SDS011;9459;50.254;19.014;2023-03-01T03:45:35;83.72;;;36.67;;
18659;SDS011;9459;50.254;19.014;2023-03-01T03:48:06;74.07;;;34.20;;
18659;SDS011;9459;50.254;19.014;2023-03-01T03:50:36;89.80;;;38.85;;
18659;SDS011;9459;50.254;19.014;2023-03-01T03:53:05;95.30;;;39.92;;
18659;SDS011;9459;50.254;19.014;2023-03-01T03:55:34;94.25;;;39.20;;
18659;SDS011;9459;50.254;19.014;2023-03-01T03:58:06;109.95;;;44.75;;
18659;SDS011;9459;50.254;19.014;2023-03-01T04:00:38;113.78;;;44.53;;
18659;SDS011;9459;50.254;19.014;2023-03-01T04:03:10;119.82;;;47.88;;
18659;SDS011;9459;50.254;19.014;2023-03-01T04:05:40;114.37;;;46.27;;
18659;SDS011;9459;50.254;19.014;2023-03-01T04:08:09;115.68;;;47.42;;
18659;SDS011;9459;50.254;19.014;2023-03-01T04:10:38;104.03;;;45.67;;
18659;SDS011;9459;50.254;19.014;2023-03-01T04:13:09;104.78;;;44.85;;
18659;SDS011;9459;50.254;19.014;2023-03-01T04:15:40;103.90;;;43.67;;
18659;SDS011;9459;50.254;19.014;2023-03-01T04:18:10;109.15;;;48.55;;
18659;SDS011;9459;50.254;19.014;2023-03-01T04:20:40;116.10;;;48.87;;
18659;SDS011;9459;50.254;19.014;2023-03-01T04:23:09;106.78;;;46.30;;
18659;SDS011;9459;50.254;19.014;2023-03-01T04:25:40;104.57;;;44.90;;
18659;SDS011;9459;50.254;19.014;2023-03-01T04:28:10;105.87;;;45.43;;
18659;SDS011;9459;50.254;19.014;2023-03-01T04:30:40;103.65;;;44.65;;
18659;SDS011;9459;50.254;19.014;2023-03-01T04:33:09;107.30;;;46.70;;
18659;SDS011;9459;50.254;19.014;2023-03-01T04:35:38;103.20;;;47.83;;
18659;SDS011;9459;50.254;19.014;2023-03-01T04:38:07;112.43;;;47.83;;
18659;SDS011;9459;50.254;19.014;2023-03-01T04:40:36;111.63;;;49.45;;
18659;SDS011;9459;50.254;19.014;2023-03-01T04:43:05;114.10;;;48.65;;
18659;SDS011;9459;50.254;19.014;2023-03-01T04:45:33;113.65;;;48.40;;
18659;SDS011;9459;50.254;19.014;2023-03-01T04:48:06;119.05;;;51.20;;
18659;SDS011;9459;50.254;19.014;2023-03-01T04:50:34;123.68;;;50.15;;
18659;SDS011;9459;50.254;19.014;2023-03-01T04:53:03;113.95;;;49.20;;
18659;SDS011;9459;50.254;19.014;2023-03-01T04:55:32;128.90;;;51.95;;
18659;SDS011;9459;50.254;19.014;2023-03-01T04:58:01;130.20;;;53.95;;
18659;SDS011;9459;50.254;19.014;2023-03-01T05:00:30;140.98;;;56.30;;
18659;SDS011;9459;50.254;19.014;2023-03-01T05:03:01;127.40;;;50.42;;
18659;SDS011;9459;50.254;19.014;2023-03-01T05:05:32;119.72;;;49.50;;
18659;SDS011;9459;50.254;19.014;2023-03-01T05:08:04;125.75;;;52.20;;
18659;SDS011;9459;50.254;19.014;2023-03-01T05:10:33;116.40;;;52.15;;
18659;SDS011;9459;50.254;19.014;2023-03-01T05:13:03;121.50;;;51.00;;
18659;SDS011;9459;50.254;19.014;2023-03-01T05:15:33;116.25;;;49.80;;
18659;SDS011;9459;50.254;19.014;2023-03-01T05:18:03;99.75;;;46.78;;
18659;SDS011;9459;50.254;19.014;2023-03-01T05:20:39;103.65;;;46.00;;
18659;SDS011;9459;50.254;19.014;2023-03-01T05:23:07;113.22;;;48.17;;
18659;SDS011;9459;50.254;19.014;2023-03-01T05:25:36;118.38;;;52.72;;
18659;SDS011;9459;50.254;19.014;2023-03-01T05:28:08;103.30;;;46.03;;
18659;SDS011;9459;50.254;19.014;2023-03-01T05:30:39;112.47;;;46.65;;
18659;SDS011;9459;50.254;19.014;2023-03-01T05:33:08;98.70;;;43.67;;
18659;SDS011;9459;50.254;19.014;2023-03-01T05:35:41;97.10;;;43.38;;
18659;SDS011;9459;50.254;19.014;2023-03-01T05:38:11;97.47;;;42.47;;
18659;SDS011;9459;50.254;19.014;2023-03-01T05:40:41;89.85;;;40.88;;
18659;SDS011;9459;50.254;19.014;2023-03-01T05:43:10;114.88;;;49.95;;
18659;SDS011;9459;50.254;19.014;2023-03-01T05:45:39;130.57;;;57.38;;
18659;SDS011;9459;50.254;19.014;2023-03-01T05:48:09;153.63;;;63.88;;
18659;SDS011;9459;50.254;19.014;2023-03-01T05:50:38;142.50;;;61.75;;
18659;SDS011;9459;50.254;19.014;2023-03-01T05:53:11;129.05;;;59.38;;
18659;SDS011;9459;50.254;19.014;2023-03-01T05:55:40;136.63;;;59.55;;
18659;SDS011;9459;50.254;19.014;2023-03-01T05:58:10;132.88;;;58.15;;
18659;SDS011;9459;50.254;19.014;2023-03-01T06:00:40;134.63;;;60.38;;
18659;SDS011;9459;50.254;19.014;2023-03-01T06:03:09;135.80;;;60.10;;
18659;SDS011;9459;50.254;19.014;2023-03-01T06:05:39;126.07;;;60.35;;
18659;SDS011;9459;50.254;19.014;2023-03-01T06:08:09;130.10;;;59.15;;
18659;SDS011;9459;50.254;19.014;2023-03-01T06:10:38;122.53;;;56.97;;
18659;SDS011;9459;50.254;19.014;2023-03-01T06:13:07;119.82;;;54.83;;
18659;SDS011;9459;50.254;19.014;2023-03-01T06:15:38;123.18;;;58.35;;
18659;SDS011;9459;50.254;19.014;2023-03-01T06:18:08;115.22;;;55.42;;
18659;SDS011;9459;50.254;19.014;2023-03-01T06:20:36;121.70;;;58.03;;
18659;SDS011;9459;50.254;19.014;2023-03-01T06:23:05;114.97;;;54.70;;
18659;SDS011;9459;50.254;19.014;2023-03-01T06:25:36;111.82;;;56.03;;
18659;SDS011;9459;50.254;19.014;2023-03-01T06:28:05;114.72;;;57.55;;
18659;SDS011;9459;50.254;19.014;2023-03-01T06:30:33;116.18;;;57.83;;
18659;SDS011;9459;50.254;19.014;2023-03-01T06:33:02;121.82;;;63.33;;
18659;SDS011;9459;50.254;19.014;2023-03-01T06:35:33;116.35;;;61.65;;
18659;SDS011;9459;50.254;19.014;2023-03-01T06:40:31;121.32;;;61.28;;
18659;SDS011;9459;50.254;19.014;2023-03-01T06:45:31;123.53;;;62.08;;
18659;SDS011;9459;50.254;19.014;2023-03-01T06:48:03;124.55;;;67.15;;
18659;SDS011;9459;50.254;19.014;2023-03-01T06:50:33;107.18;;;58.00;;
18659;SDS011;9459;50.254;19.014;2023-03-01T06:53:02;106.43;;;57.90;;
18659;SDS011;9459;50.254;19.014;2023-03-01T06:55:31;98.93;;;54.22;;
18659;SDS011;9459;50.254;19.014;2023-03-01T06:58:01;94.55;;;54.22;;
18659;SDS011;9459;50.254;19.014;2023-03-01T07:00:31;101.03;;;55.25;;
18659;SDS011;9459;50.254;19.014;2023-03-01T07:03:00;94.15;;;53.70;;
18659;SDS011;9459;50.254;19.014;2023-03-01T07:05:30;100.72;;;56.70;;
18659;SDS011;9459;50.254;19.014;2023-03-01T07:07:59;94.50;;;53.80;;
18659;SDS011;9459;50.254;19.014;2023-03-01T07:10:27;94.07;;;55.20;;
18659;SDS011;9459;50.254;19.014;2023-03-01T07:12:56;89.72;;;52.65;;
18659;SDS011;9459;50.254;19.014;2023-03-01T07:15:25;82.07;;;47.00;;
18659;SDS011;9459;50.254;19.014;2023-03-01T07:17:57;73.68;;;43.67;;
18659;SDS011;9459;50.254;19.014;2023-03-01T07:20:25;73.32;;;44.58;;
18659;SDS011;9459;50.254;19.014;2023-03-01T07:22:54;83.72;;;47.47;;
18659;SDS011;9459;50.254;19.014;2023-03-01T07:25:23;69.57;;;43.58;;
18659;SDS011;9459;50.254;19.014;2023-03-01T07:27:52;69.18;;;41.92;;
18659;SDS011;9459;50.254;19.014;2023-03-01T07:30:21;64.93;;;41.33;;
18659;SDS011;9459;50.254;19.014;2023-03-01T07:32:53;70.65;;;41.67;;
18659;SDS011;9459;50.254;19.014;2023-03-01T07:35:23;75.93;;;46.42;;
18659;SDS011;9459;50.254;19.014;2023-03-01T07:37:53;68.38;;;41.15;;
18659;SDS011;9459;50.254;19.014;2023-03-01T07:40:22;65.65;;;38.30;;
18659;SDS011;9459;50.254;19.014;2023-03-01T07:42:54;59.63;;;36.33;;
18659;SDS011;9459;50.254;19.014;2023-03-01T07:45:23;68.38;;;39.08;;
18659;SDS011;9459;50.254;19.014;2023-03-01T07:47:52;62.80;;;39.38;;
18659;SDS011;9459;50.254;19.014;2023-03-01T07:50:22;64.55;;;38.70;;
18659;SDS011;9459;50.254;19.014;2023-03-01T07:52:51;59.58;;;35.60;;
18659;SDS011;9459;50.254;19.014;2023-03-01T07:55:19;45.60;;;29.05;;
18659;SDS011;9459;50.254;19.014;2023-03-01T07:57:48;45.63;;;28.58;;
18659;SDS011;9459;50.254;19.014;2023-03-01T08:00:16;50.50;;;33.15;;
18659;SDS011;9459;50.254;19.014;2023-03-01T08:02:46;50.05;;;31.67;;
18659;SDS011;9459;50.254;19.014;2023-03-01T08:05:14;45.13;;;28.25;;
18659;SDS011;9459;50.254;19.014;2023-03-01T08:07:44;54.63;;;35.05;;
18659;SDS011;9459;50.254;19.014;2023-03-01T08:10:13;53.47;;;33.20;;
18659;SDS011;9459;50.254;19.014;2023-03-01T08:12:42;43.75;;;29.63;;
18659;SDS011;9459;50.254;19.014;2023-03-01T08:15:10;39.72;;;25.58;;
18659;SDS011;9459;50.254;19.014;2023-03-01T08:17:39;47.20;;;31.50;;
18659;SDS011;9459;50.254;19.014;2023-03-01T08:20:08;49.03;;;33.05;;
18659;SDS011;9459;50.254;19.014;2023-03-01T08:22:39;62.38;;;38.50;;
18659;SDS011;9459;50.254;19.014;2023-03-01T08:25:09;65.38;;;41.05;;
18659;SDS011;9459;50.254;19.014;2023-03-01T08:27:38;50.00;;;32.05;;
18659;SDS011;9459;50.254;19.014;2023-03-01T08:30:07;53.63;;;33.58;;
18659;SDS011;9459;50.254;19.014;2023-03-01T08:32:37;51.72;;;35.03;;
18659;SDS011;9459;50.254;19.014;2023-03-01T08:35:06;55.78;;;35.38;;
18659;SDS011;9459;50.254;19.014;2023-03-01T08:37:35;57.20;;;35.17;;
18659;SDS011;9459;50.254;19.014;2023-03-01T08:40:04;52.60;;;34.00;;
18659;SDS011;9459;50.254;19.014;2023-03-01T08:42:38;51.35;;;33.92;;
18659;SDS011;9459;50.254;19.014;2023-03-01T08:45:07;55.13;;;35.42;;
18659;SDS011;9459;50.254;19.014;2023-03-01T08:47:36;27.42;;;18.98;;
18659;SDS011;9459;50.254;19.014;2023-03-01T08:50:05;20.08;;;14.25;;
18659;SDS011;9459;50.254;19.014;2023-03-01T08:52:34;24.88;;;15.77;;
18659;SDS011;9459;50.254;19.014;2023-03-01T08:55:02;31.05;;;19.65;;
18659;SDS011;9459;50.254;19.014;2023-03-01T08:57:32;41.15;;;25.17;;
18659;SDS011;9459;50.254;19.014;2023-03-01T09:00:01;35.90;;;24.00;;
18659;SDS011;9459;50.254;19.014;2023-03-01T09:02:35;34.25;;;22.15;;
18659;SDS011;9459;50.254;19.014;2023-03-01T09:05:04;33.60;;;21.92;;
18659;SDS011;9459;50.254;19.014;2023-03-01T09:07:33;34.00;;;20.75;;
18659;SDS011;9459;50.254;19.014;2023-03-01T09:10:01;34.42;;;22.10;;
18659;SDS011;9459;50.254;19.014;2023-03-01T09:12:29;37.75;;;25.70;;
18659;SDS011;9459;50.254;19.014;2023-03-01T09:14:58;42.42;;;25.58;;
18659;SDS011;9459;50.254;19.014;2023-03-01T09:17:28;33.38;;;23.02;;
18659;SDS011;9459;50.254;19.014;2023-03-01T09:19:56;34.88;;;23.52;;
18659;SDS011;9459;50.254;19.014;2023-03-01T09:22:25;33.20;;;22.65;;
18659;SDS011;9459;50.254;19.014;2023-03-01T09:24:54;35.80;;;23.27;;
18659;SDS011;9459;50.254;19.014;2023-03-01T09:27:25;33.47;;;21.70;;
18659;SDS011;9459;50.254;19.014;2023-03-01T09:29:53;37.55;;;24.67;;
18659;SDS011;9459;50.254;19.014;2023-03-01T09:32:23;39.50;;;24.83;;
18659;SDS011;9459;50.254;19.014;2023-03-01T09:34:52;35.40;;;24.05;;
18659;SDS011;9459;50.254;19.014;2023-03-01T09:37:32;34.13;;;24.23;;
18659;SDS011;9459;50.254;19.014;2023-03-01T09:40:00;35.63;;;25.30;;
18659;SDS011;9459;50.254;19.014;2023-03-01T09:42:31;38.95;;;27.10;;
18659;SDS011;9459;50.254;19.014;2023-03-01T09:45:01;38.30;;;27.77;;
18659;SDS011;9459;50.254;19.014;2023-03-01T09:47:32;36.85;;;26.27;;
18659;SDS011;9459;50.254;19.014;2023-03-01T09:50:04;43.67;;;27.95;;
18659;SDS011;9459;50.254;19.014;2023-03-01T09:52:36;42.88;;;31.55;;
18659;SDS011;9459;50.254;19.014;2023-03-01T09:55:09;41.22;;;29.60;;
18659;SDS011;9459;50.254;19.014;2023-03-01T09:57:41;41.03;;;28.73;;
18659;SDS011;9459;50.254;19.014;2023-03-01T10:00:17;40.95;;;29.63;;
18659;SDS011;9459;50.254;19.014;2023-03-01T10:02:51;29.98;;;21.67;;
18659;SDS011;9459;50.254;19.014;2023-03-01T10:05:36;28.35;;;19.38;;
18659;SDS011;9459;50.254;19.014;2023-03-01T10:11:03;28.58;;;19.23;;
18659;SDS011;9459;50.254;19.014;2023-03-01T10:13:36;28.35;;;20.02;;
18659;SDS011;9459;50.254;19.014;2023-03-01T10:16:10;28.15;;;20.58;;
18659;SDS011;9459;50.254;19.014;2023-03-01T10:18:40;28.08;;;19.67;;
18659;SDS011;9459;50.254;19.014;2023-03-01T10:21:13;26.50;;;21.23;;
18659;SDS011;9459;50.254;19.014;2023-03-01T10:23:43;22.70;;;15.80;;
18659;SDS011;9459;50.254;19.014;2023-03-01T10:26:18;22.80;;;15.05;;
18659;SDS011;9459;50.254;19.014;2023-03-01T10:28:59;23.83;;;15.30;;
18659;SDS011;9459;50.254;19.014;2023-03-01T10:31:35;17.95;;;13.98;;
18659;SDS011;9459;50.254;19.014;2023-03-01T10:34:10;20.17;;;14.13;;
18659;SDS011;9459;50.254;19.014;2023-03-01T10:36:42;22.00;;;16.60;;
18659;SDS011;9459;50.254;19.014;2023-03-01T10:39:13;22.98;;;14.95;;
18659;SDS011;9459;50.254;19.014;2023-03-01T10:44:35;21.13;;;17.40;;
18659;SDS011;9459;50.254;19.014;2023-03-01T10:47:17;23.60;;;17.27;;
18659;SDS011;9459;50.254;19.014;2023-03-01T10:49:52;26.35;;;17.92;;
18659;SDS011;9459;50.254;19.014;2023-03-01T10:52:28;24.83;;;16.98;;
18659;SDS011;9459;50.254;19.014;2023-03-01T10:55:02;30.05;;;18.20;;
18659;SDS011;9459;50.254;19.014;2023-03-01T10:57:33;21.63;;;16.63;;
18659;SDS011;9459;50.254;19.014;2023-03-01T11:00:19;27.27;;;17.52;;
18659;SDS011;9459;50.254;19.014;2023-03-01T11:02:50;21.85;;;17.52;;
18659;SDS011;9459;50.254;19.014;2023-03-01T11:05:21;27.38;;;18.45;;
18659;SDS011;9459;50.254;19.014;2023-03-01T11:07:53;20.85;;;16.10;;
18659;SDS011;9459;50.254;19.014;2023-03-01T11:10:24;21.55;;;16.65;;
18659;SDS011;9459;50.254;19.014;2023-03-01T11:12:53;26.40;;;18.55;;
18659;SDS011;9459;50.254;19.014;2023-03-01T11:15:33;26.80;;;17.52;;
18659;SDS011;9459;50.254;19.014;2023-03-01T11:18:02;24.50;;;17.00;;
18659;SDS011;9459;50.254;19.014;2023-03-01T11:20:39;25.90;;;16.83;;
18659;SDS011;9459;50.254;19.014;2023-03-01T11:23:10;21.40;;;17.02;;
18659;SDS011;9459;50.254;19.014;2023-03-01T11:25:42;24.25;;;17.13;;
18659;SDS011;9459;50.254;19.014;2023-03-01T11:28:13;25.23;;;16.70;;
18659;SDS011;9459;50.254;19.014;2023-03-01T11:30:46;21.00;;;14.65;;
18659;SDS011;9459;50.254;19.014;2023-03-01T11:33:34;25.65;;;19.60;;
18659;SDS011;9459;50.254;19.014;2023-03-01T11:36:07;23.15;;;17.52;;
18659;SDS011;9459;50.254;19.014;2023-03-01T11:38:43;21.05;;;16.25;;
18659;SDS011;9459;50.254;19.014;2023-03-01T11:41:12;25.75;;;16.83;;
18659;SDS011;9459;50.254;19.014;2023-03-01T11:43:46;22.35;;;15.98;;
18659;SDS011;9459;50.254;19.014;2023-03-01T11:46:31;20.85;;;14.90;;
18659;SDS011;9459;50.254;19.014;2023-03-01T11:49:10;21.30;;;15.10;;
18659;SDS011;9459;50.254;19.014;2023-03-01T11:54:27;22.55;;;15.68;;
18659;SDS011;9459;50.254;19.014;2023-03-01T11:57:03;22.90;;;15.27;;
18659;SDS011;9459;50.254;19.014;2023-03-01T11:59:59;20.67;;;15.88;;
18659;SDS011;9459;50.254;19.014;2023-03-01T12:02:41;22.23;;;14.63;;
18659;SDS011;9459;50.254;19.014;2023-03-01T12:05:24;20.98;;;16.23;;
18659;SDS011;9459;50.254;19.014;2023-03-01T12:08:05;23.63;;;15.95;;
18659;SDS011;9459;50.254;19.014;2023-03-01T12:10:41;22.10;;;16.05;;
18659;SDS011;9459;50.254;19.014;2023-03-01T12:13:20;23.70;;;16.33;;
18659;SDS011;9459;50.254;19.014;2023-03-01T12:19:09;25.70;;;19.30;;
18659;SDS011;9459;50.254;19.014;2023-03-01T12:21:47;22.90;;;16.92;;
18659;SDS011;9459;50.254;19.014;2023-03-01T12:24:37;27.40;;;18.75;;
18659;SDS011;9459;50.254;19.014;2023-03-01T12:27:25;25.90;;;16.98;;
18659;SDS011;9459;50.254;19.014;2023-03-01T12:30:05;30.08;;;18.13;;
18659;SDS011;9459;50.254;19.014;2023-03-01T12:32:47;30.10;;;18.83;;
18659;SDS011;9459;50.254;19.014;2023-03-01T12:35:25;28.90;;;17.33;;
18659;SDS011;9459;50.254;19.014;2023-03-01T12:38:04;36.03;;;18.45;;
18659;SDS011;9459;50.254;19.014;2023-03-01T12:40:47;25.38;;;15.93;;
18659;SDS011;9459;50.254;19.014;2023-03-01T12:43:38;30.20;;;16.52;;
18659;SDS011;9459;50.254;19.014;2023-03-01T12:46:18;32.60;;;19.00;;
18659;SDS011;9459;50.254;19.014;2023-03-01T12:48:55;26.10;;;16.55;;
18659;SDS011;9459;50.254;19.014;2023-03-01T12:51:31;26.17;;;17.48;;
18659;SDS011;9459;50.254;19.014;2023-03-01T12:54:01;53.50;;;35.93;;
18659;SDS011;9459;50.254;19.014;2023-03-01T12:56:34;26.90;;;16.50;;
18659;SDS011;9459;50.254;19.014;2023-03-01T12:59:09;33.42;;;18.80;;
18659;SDS011;9459;50.254;19.014;2023-03-01T13:01:42;28.90;;;16.17;;
18659;SDS011;9459;50.254;19.014;2023-03-01T13:04:16;44.95;;;23.60;;
18659;SDS011;9459;50.254;19.014;2023-03-01T13:06:54;36.53;;;21.30;;
18659;SDS011;9459;50.254;19.014;2023-03-01T13:09:29;24.58;;;15.45;;
18659;SDS011;9459;50.254;19.014;2023-03-01T13:11:59;26.10;;;15.23;;
18659;SDS011;9459;50.254;19.014;2023-03-01T13:14:39;30.35;;;19.92;;
18659;SDS011;9459;50.254;19.014;2023-03-01T13:17:33;23.70;;;14.60;;
18659;SDS011;9459;50.254;19.014;2023-03-01T13:22:41;20.55;;;11.73;;
18659;SDS011;9459;50.254;19.014;2023-03-01T13:25:20;24.08;;;11.95;;
18659;SDS011;9459;50.254;19.014;2023-03-01T13:31:01;22.55;;;12.18;;
18659;SDS011;9459;50.254;19.014;2023-03-01T13:33:33;21.45;;;12.50;;
18659;SDS011;9459;50.254;19.014;2023-03-01T13:36:08;25.80;;;14.07;;
18659;SDS011;9459;50.254;19.014;2023-03-01T13:38:44;18.00;;;11.82;;
18659;SDS011;9459;50.254;19.014;2023-03-01T13:41:14;22.90;;;11.90;;
18659;SDS011;9459;50.254;19.014;2023-03-01T13:43:45;24.15;;;12.75;;
18659;SDS011;9459;50.254;19.014;2023-03-01T13:46:17;21.08;;;12.93;;
18659;SDS011;9459;50.254;19.014;2023-03-01T13:48:49;23.15;;;14.60;;
18659;SDS011;9459;50.254;19.014;2023-03-01T13:51:20;41.63;;;28.60;;
18659;SDS011;9459;50.254;19.014;2023-03-01T13:53:51;47.75;;;28.50;;
18659;SDS011;9459;50.254;19.014;2023-03-01T13:56:22;64.63;;;34.17;;
18659;SDS011;9459;50.254;19.014;2023-03-01T13:58:53;89.82;;;56.78;;
18659;SDS011;9459;50.254;19.014;2023-03-01T14:01:25;45.47;;;24.77;;
18659;SDS011;9459;50.254;19.014;2023-03-01T14:03:56;65.45;;;35.20;;
18659;SDS011;9459;50.254;19.014;2023-03-01T14:06:26;143.52;;;86.22;;
18659;SDS011;9459;50.254;19.014;2023-03-01T14:09:01;39.13;;;22.55;;
18659;SDS011;9459;50.254;19.014;2023-03-01T14:14:42;19.98;;;13.40;;
18659;SDS011;9459;50.254;19.014;2023-03-01T14:17:19;21.48;;;13.40;;
18659;SDS011;9459;50.254;19.014;2023-03-01T14:19:58;21.45;;;12.48;;
18659;SDS011;9459;50.254;19.014;2023-03-01T14:22:28;25.05;;;15.05;;
18659;SDS011;9459;50.254;19.014;2023-03-01T14:24:59;23.17;;;13.70;;
18659;SDS011;9459;50.254;19.014;2023-03-01T14:27:30;24.23;;;13.27;;
18659;SDS011;9459;50.254;19.014;2023-03-01T14:30:00;21.42;;;12.65;;
18659;SDS011;9459;50.254;19.014;2023-03-01T14:32:32;20.60;;;12.05;;
18659;SDS011;9459;50.254;19.014;2023-03-01T14:35:01;20.90;;;12.50;;
18659;SDS011;9459;50.254;19.014;2023-03-01T14:37:31;19.88;;;11.98;;
18659;SDS011;9459;50.254;19.014;2023-03-01T14:40:01;21.42;;;13.38;;
18659;SDS011;9459;50.254;19.014;2023-03-01T14:42:33;21.30;;;11.77;;
18659;SDS011;9459;50.254;19.014;2023-03-01T14:45:03;30.40;;;17.20;;
18659;SDS011;9459;50.254;19.014;2023-03-01T14:47:34;35.63;;;17.83;;
18659;SDS011;9459;50.254;19.014;2023-03-01T14:50:07;26.75;;;15.55;;
18659;SDS011;9459;50.254;19.014;2023-03-01T14:52:37;25.52;;;15.07;;
18659;SDS011;9459;50.254;19.014;2023-03-01T14:55:13;26.40;;;13.98;;
18659;SDS011;9459;50.254;19.014;2023-03-01T14:57:46;23.23;;;13.98;;
18659;SDS011;9459;50.254;19.014;2023-03-01T15:00:17;24.95;;;12.27;;
18659;SDS011;9459;50.254;19.014;2023-03-01T15:02:48;30.85;;;14.73;;
18659;SDS011;9459;50.254;19.014;2023-03-01T15:05:22;30.25;;;15.32;;
18659;SDS011;9459;50.254;19.014;2023-03-01T15:07:53;24.80;;;15.27;;
18659;SDS011;9459;50.254;19.014;2023-03-01T15:10:23;21.95;;;13.35;;